createdAt,value
2022-11-19T00:01:57.750Z,9.70
2022-11-19T00:04:25.776Z,9.70
2022-11-19T00:06:55.161Z,9.70
2022-11-19T00:09:23.221Z,9.60
2022-11-19T00:12:09.056Z,9.60
2022-11-19T00:14:37.080Z,9.60
2022-11-19T00:17:05.079Z,9.60
2022-11-19T00:19:33.035Z,9.70
2022-11-19T00:22:02.465Z,9.60
2022-11-19T00:24:30.448Z,9.60
2022-11-19T00:26:58.347Z,9.60
2022-11-19T00:29:26.318Z,9.60
2022-11-19T00:31:54.366Z,9.70
2022-11-19T00:34:22.330Z,9.70
2022-11-19T00:36:50.819Z,9.60
2022-11-19T00:39:21.090Z,9.60
2022-11-19T00:41:49.438Z,9.60
2022-11-19T00:44:17.388Z,9.70
2022-11-19T00:46:45.300Z,9.60
2022-11-19T00:49:13.321Z,9.60
2022-11-19T00:51:41.321Z,9.60
2022-11-19T00:54:09.351Z,9.60
2022-11-19T00:56:38.817Z,9.60
2022-11-19T00:59:06.969Z,9.60
2022-11-19T01:01:35.025Z,9.60
2022-11-19T01:04:03.040Z,9.60
2022-11-19T01:06:31.164Z,9.60
2022-11-19T01:08:59.537Z,9.60
2022-11-19T01:11:29.773Z,9.50
2022-11-19T01:14:00.012Z,9.50
2022-11-19T01:16:31.093Z,9.50
2022-11-19T01:18:59.227Z,9.50
2022-11-19T01:21:33.169Z,9.50
2022-11-19T01:24:02.512Z,9.50
2022-11-19T01:26:30.974Z,9.50
2022-11-19T01:29:00.392Z,9.50
2022-11-19T01:31:30.487Z,9.50
2022-11-19T01:33:59.331Z,9.50
2022-11-19T01:36:28.991Z,9.50
2022-11-19T01:38:57.745Z,9.50
2022-11-19T01:41:27.523Z,9.50
2022-11-19T01:43:59.083Z,9.50
2022-11-19T01:46:29.961Z,9.50
2022-11-19T01:49:02.671Z,9.60
2022-11-19T01:51:33.899Z,9.50
2022-11-19T01:54:06.232Z,9.50
2022-11-19T01:56:34.270Z,9.60
2022-11-19T01:59:09.056Z,9.50
2022-11-19T02:01:38.473Z,9.50
2022-11-19T02:04:08.545Z,9.60
2022-11-19T02:06:36.944Z,9.50
2022-11-19T02:09:05.285Z,9.60
2022-11-19T02:12:14.978Z,9.50
2022-11-19T02:15:09.299Z,9.50
2022-11-19T02:18:06.123Z,9.60
2022-11-19T02:20:59.708Z,9.60
2022-11-19T02:24:09.415Z,9.60
2022-11-19T02:27:00.426Z,9.60
2022-11-19T02:30:16.528Z,9.60
2022-11-19T02:33:10.695Z,9.60
2022-11-19T02:35:50.732Z,9.60
2022-11-19T02:38:29.667Z,9.60
2022-11-19T02:41:01.695Z,9.60
2022-11-19T02:43:36.891Z,9.60
2022-11-19T02:46:10.398Z,9.60
2022-11-19T02:48:41.591Z,9.60
2022-11-19T02:51:10.412Z,9.60
2022-11-19T02:53:38.376Z,9.60
2022-11-19T02:56:17.847Z,9.60
2022-11-19T02:59:07.609Z,9.60
2022-11-19T03:01:56.852Z,9.60
2022-11-19T03:04:32.823Z,9.60
2022-11-19T03:07:05.756Z,9.60
2022-11-19T03:09:35.824Z,9.60
2022-11-19T03:12:12.311Z,9.60
2022-11-19T03:15:04.708Z,9.60
2022-11-19T03:17:48.432Z,9.60
2022-11-19T03:20:23.726Z,9.60
2022-11-19T03:22:55.188Z,9.60
2022-11-19T03:25:28.244Z,9.60
2022-11-19T03:28:00.762Z,9.60
2022-11-19T03:30:30.180Z,9.60
2022-11-19T03:33:04.922Z,9.60
2022-11-19T03:35:37.569Z,9.60
2022-11-19T03:38:10.126Z,9.60
2022-11-19T03:40:39.738Z,9.60
2022-11-19T03:43:10.620Z,9.60
2022-11-19T03:45:43.137Z,9.60
2022-11-19T03:48:14.018Z,9.70
2022-11-19T03:50:49.568Z,9.70
2022-11-19T03:53:17.914Z,9.70
2022-11-19T03:55:50.900Z,9.70
2022-11-19T03:58:18.884Z,9.70
2022-11-19T04:00:47.073Z,9.70
2022-11-19T04:03:16.485Z,9.70
2022-11-19T04:05:44.456Z,9.70
2022-11-19T04:08:12.543Z,9.70
2022-11-19T04:10:40.708Z,9.70
2022-11-19T04:13:08.758Z,9.70
2022-11-19T04:15:36.749Z,9.70
2022-11-19T04:18:05.017Z,9.70
2022-11-19T04:20:34.356Z,9.70
2022-11-19T04:23:02.373Z,9.70
2022-11-19T04:25:30.349Z,9.70
2022-11-19T04:27:58.343Z,9.70
2022-11-19T04:30:26.296Z,9.70
2022-11-19T04:32:54.257Z,9.70
2022-11-19T04:35:22.511Z,9.70
2022-11-19T04:37:51.845Z,9.70
2022-11-19T04:40:19.860Z,9.70
2022-11-19T04:42:47.857Z,9.70
2022-11-19T04:45:15.885Z,9.70
2022-11-19T04:47:44.185Z,9.70
2022-11-19T04:50:12.211Z,9.70
2022-11-19T04:52:41.453Z,9.80
2022-11-19T04:55:11.714Z,9.80
2022-11-19T04:57:39.856Z,9.80
2022-11-19T05:00:09.484Z,9.80
2022-11-19T05:02:37.494Z,9.80
2022-11-19T05:05:05.996Z,9.80
2022-11-19T05:07:34.044Z,9.80
2022-11-19T05:10:02.050Z,9.70
2022-11-19T05:12:31.478Z,9.70
2022-11-19T05:14:59.450Z,9.70
2022-11-19T05:17:27.441Z,9.70
2022-11-19T05:19:55.809Z,9.70
2022-11-19T05:22:23.780Z,9.70
2022-11-19T05:24:51.782Z,9.70
2022-11-19T05:27:19.868Z,9.70
2022-11-19T05:29:49.363Z,9.70
2022-11-19T05:32:17.355Z,9.70
2022-11-19T05:34:45.892Z,9.70
2022-11-19T05:37:13.966Z,9.70
2022-11-19T05:39:42.047Z,9.80
2022-11-19T05:42:10.092Z,9.70
2022-11-19T05:44:38.030Z,9.80
2022-11-19T05:47:07.451Z,9.80
2022-11-19T05:49:35.417Z,9.80
2022-11-19T05:52:03.399Z,9.80
2022-11-19T05:54:31.486Z,9.80
2022-11-19T05:57:01.501Z,9.80
2022-11-19T05:59:30.628Z,9.80
2022-11-19T06:01:58.563Z,9.90
2022-11-19T06:04:28.113Z,9.90
2022-11-19T06:06:56.586Z,9.90
2022-11-19T06:09:24.639Z,9.90
2022-11-19T06:11:52.664Z,9.90
2022-11-19T06:14:23.072Z,9.90
2022-11-19T06:16:51.652Z,9.90
2022-11-19T06:19:20.594Z,9.90
2022-11-19T06:21:50.938Z,9.90
2022-11-19T06:24:18.956Z,9.90
2022-11-19T06:26:47.074Z,9.90
2022-11-19T06:29:16.021Z,9.90
2022-11-19T06:31:44.145Z,9.80
2022-11-19T06:34:12.553Z,9.80
2022-11-19T06:36:44.953Z,9.80
2022-11-19T06:39:17.347Z,9.80
2022-11-19T06:41:45.725Z,9.80
2022-11-19T06:44:13.735Z,9.80
2022-11-19T06:46:42.456Z,9.80
2022-11-19T06:49:14.249Z,9.80
2022-11-19T06:51:44.952Z,9.80
2022-11-19T06:54:12.997Z,9.80
2022-11-19T06:56:42.323Z,9.80
2022-11-19T06:59:10.296Z,9.80
2022-11-19T07:01:38.383Z,9.80
2022-11-19T07:04:06.518Z,9.80
2022-11-19T07:06:34.481Z,9.80
2022-11-19T07:09:02.488Z,9.80
2022-11-19T07:11:31.077Z,9.80
2022-11-19T07:14:00.645Z,9.80
2022-11-19T07:16:30.585Z,9.90
2022-11-19T07:18:59.605Z,9.90
2022-11-19T07:21:28.220Z,9.90
2022-11-19T07:23:57.148Z,10.00
2022-11-19T07:26:25.893Z,10.00
2022-11-19T07:28:54.023Z,10.10
2022-11-19T07:31:24.556Z,10.10
2022-11-19T07:33:52.508Z,10.10
2022-11-19T07:36:20.610Z,10.10
2022-11-19T07:38:50.516Z,10.10
2022-11-19T07:41:36.034Z,10.10
2022-11-19T07:44:04.108Z,10.10
2022-11-19T07:46:33.723Z,10.10
2022-11-19T07:49:01.852Z,10.10
2022-11-19T07:51:29.865Z,10.10
2022-11-19T07:53:57.860Z,10.20
2022-11-19T07:56:26.133Z,10.20
2022-11-19T07:58:54.112Z,10.40
2022-11-19T08:01:24.205Z,10.50
2022-11-19T08:03:56.521Z,10.70
2022-11-19T08:06:26.330Z,10.90
2022-11-19T08:08:56.466Z,11.10
2022-11-19T08:11:27.355Z,11.30
2022-11-19T08:13:55.889Z,11.40
2022-11-19T08:16:41.376Z,11.50
2022-11-19T08:19:13.647Z,11.60
2022-11-19T08:21:43.289Z,11.70
2022-11-19T08:24:11.894Z,11.80
2022-11-19T08:26:40.761Z,11.70
2022-11-19T08:29:14.628Z,11.70
2022-11-19T08:31:45.553Z,11.70
2022-11-19T08:34:15.102Z,11.60
2022-11-19T08:36:43.379Z,11.60
2022-11-19T08:39:11.971Z,11.50
2022-11-19T08:41:57.706Z,11.50
2022-11-19T08:44:27.878Z,11.50
2022-11-19T08:46:55.954Z,11.50
2022-11-19T08:49:25.493Z,11.50
2022-11-19T08:51:53.877Z,11.60
2022-11-19T08:54:22.510Z,11.50
2022-11-19T08:56:50.588Z,11.50
2022-11-19T08:59:21.715Z,11.50
2022-11-19T09:01:50.390Z,11.40
2022-11-19T09:04:19.019Z,11.40
2022-11-19T09:06:48.600Z,11.40
2022-11-19T09:09:16.685Z,11.40
2022-11-19T09:11:44.755Z,11.40
2022-11-19T09:14:12.749Z,11.40
2022-11-19T09:16:40.717Z,11.30
2022-11-19T09:19:08.671Z,11.40
2022-11-19T09:21:36.676Z,11.40
2022-11-19T09:24:06.680Z,11.30
2022-11-19T09:26:34.691Z,11.40
2022-11-19T09:29:02.815Z,11.40
2022-11-19T09:31:30.820Z,11.40
2022-11-19T09:33:58.797Z,11.40
2022-11-19T09:36:26.813Z,11.50
2022-11-19T09:38:57.687Z,11.60
2022-11-19T09:41:43.522Z,11.70
2022-11-19T09:44:38.781Z,11.90
2022-11-19T09:47:18.124Z,12.20
2022-11-19T09:49:51.045Z,12.40
2022-11-19T09:52:23.626Z,12.60
2022-11-19T09:54:55.233Z,12.80
2022-11-19T09:57:31.903Z,12.90
2022-11-19T10:00:02.914Z,13.00
2022-11-19T10:02:31.121Z,13.10
2022-11-19T10:05:00.247Z,13.20
2022-11-19T10:07:38.264Z,13.20
2022-11-19T10:10:24.173Z,13.40
2022-11-19T10:13:12.703Z,13.50
2022-11-19T10:15:52.790Z,13.70
2022-11-19T10:18:30.688Z,13.90
2022-11-19T10:21:05.911Z,14.10
2022-11-19T10:23:59.895Z,14.30
2022-11-19T10:26:34.215Z,14.50
2022-11-19T10:29:05.870Z,14.80
2022-11-19T10:31:37.835Z,15.10
2022-11-19T10:34:12.428Z,15.30
2022-11-19T10:36:44.008Z,15.50
2022-11-19T10:39:21.927Z,15.70
2022-11-19T10:41:55.163Z,15.90
2022-11-19T10:44:43.659Z,16.00
2022-11-19T10:47:17.527Z,16.00
2022-11-19T10:49:45.896Z,16.10
2022-11-19T10:52:24.815Z,16.10
2022-11-19T10:54:57.325Z,16.10
2022-11-19T10:57:25.804Z,16.00
2022-11-19T10:59:55.940Z,16.10
2022-11-19T11:02:31.687Z,16.00
2022-11-19T11:05:12.676Z,16.00
2022-11-19T11:07:50.852Z,16.00
2022-11-19T11:10:42.990Z,16.10
2022-11-19T11:13:37.746Z,16.10
2022-11-19T11:16:09.672Z,16.20
2022-11-19T11:18:40.767Z,16.30
2022-11-19T11:21:13.155Z,16.40
2022-11-19T11:23:53.928Z,16.50
2022-11-19T11:26:25.393Z,16.70
2022-11-19T11:28:59.897Z,17.20
2022-11-19T11:31:48.116Z,17.70
2022-11-19T11:34:31.002Z,18.40
2022-11-19T11:37:01.130Z,19.20
2022-11-19T11:39:31.658Z,20.10
2022-11-19T11:42:06.385Z,20.90
2022-11-19T11:44:38.247Z,21.70
2022-11-19T11:47:14.517Z,22.80
2022-11-19T11:49:44.979Z,24.40
2022-11-19T11:52:22.440Z,24.80
2022-11-19T11:55:01.884Z,25.50
2022-11-19T11:57:31.486Z,25.60
2022-11-19T11:59:59.906Z,25.30
2022-11-19T12:02:31.544Z,24.90
2022-11-19T12:05:02.820Z,24.60
2022-11-19T12:08:03.735Z,24.20
2022-11-19T12:10:41.619Z,23.50
2022-11-19T12:13:31.947Z,22.90
2022-11-19T12:16:09.183Z,22.30
2022-11-19T12:18:54.485Z,21.70
2022-11-19T12:21:35.451Z,22.00
2022-11-19T12:24:25.673Z,22.60
2022-11-19T12:27:01.384Z,23.20
2022-11-19T12:29:35.105Z,23.90
2022-11-19T12:32:19.660Z,24.60
2022-11-19T12:35:17.753Z,25.00
2022-11-19T12:38:02.260Z,25.00
2022-11-19T12:40:42.054Z,24.60
2022-11-19T12:43:23.676Z,24.00
2022-11-19T12:45:59.113Z,23.30
2022-11-19T12:48:42.827Z,22.40
2022-11-19T12:51:19.530Z,21.70
2022-11-19T12:54:16.932Z,21.00
2022-11-19T12:56:57.748Z,20.30
2022-11-19T12:59:39.421Z,19.70
2022-11-19T13:02:16.644Z,19.20
2022-11-19T13:04:49.216Z,18.70
2022-11-19T13:07:23.299Z,18.30
2022-11-19T13:09:55.351Z,17.90
2022-11-19T13:12:27.163Z,17.60
2022-11-19T13:14:59.530Z,17.30
2022-11-19T13:17:31.070Z,17.00
2022-11-19T13:20:04.648Z,16.80
2022-11-19T13:22:38.274Z,16.50
2022-11-19T13:25:16.142Z,16.30
2022-11-19T13:27:46.969Z,16.20
2022-11-19T13:30:19.412Z,16.10
2022-11-19T13:32:54.477Z,16.00
2022-11-19T13:35:25.884Z,15.90
2022-11-19T13:38:05.094Z,15.90
2022-11-19T13:40:37.916Z,15.80
2022-11-19T13:43:32.593Z,15.70
2022-11-19T13:46:12.348Z,15.70
2022-11-19T13:48:43.513Z,15.60
2022-11-19T13:51:21.830Z,15.50
2022-11-19T13:53:51.548Z,15.40
2022-11-19T13:56:21.630Z,15.30
2022-11-19T13:58:52.149Z,15.10
2022-11-19T14:01:39.124Z,15.00
2022-11-19T14:04:36.692Z,14.90
2022-11-19T14:07:31.245Z,14.70
2022-11-19T14:10:07.919Z,14.50
2022-11-19T14:12:47.261Z,14.40
2022-11-19T14:15:47.402Z,14.20
2022-11-19T14:18:42.805Z,14.10
2022-11-19T14:22:05.065Z,14.00
2022-11-19T14:25:15.466Z,13.90
2022-11-19T14:27:45.416Z,13.70
2022-11-19T14:30:18.524Z,13.60
2022-11-19T14:32:49.357Z,13.50
2022-11-19T14:35:34.848Z,13.50
2022-11-19T14:38:32.865Z,13.40
2022-11-19T14:41:15.100Z,13.30
2022-11-19T14:44:10.760Z,13.30
2022-11-19T14:46:41.230Z,13.20
2022-11-19T14:49:32.893Z,13.20
2022-11-19T14:52:01.449Z,13.10
2022-11-19T14:54:40.113Z,13.10
2022-11-19T14:57:16.708Z,13.10
2022-11-19T14:59:51.957Z,13.00
2022-11-19T15:02:25.380Z,13.00
2022-11-19T15:04:58.758Z,13.00
2022-11-19T15:07:42.293Z,12.90
2022-11-19T15:10:32.989Z,12.90
2022-11-19T15:13:26.215Z,12.90
2022-11-19T15:16:04.013Z,12.80
2022-11-19T15:19:14.828Z,12.80
2022-11-19T15:22:31.139Z,12.80
2022-11-19T15:25:19.112Z,12.70
2022-11-19T15:27:58.809Z,12.60
2022-11-19T15:30:39.308Z,12.60
2022-11-19T15:33:39.945Z,12.50
2022-11-19T15:36:31.919Z,12.40
2022-11-19T15:39:07.166Z,12.40
2022-11-19T15:41:40.103Z,12.20
2022-11-19T15:44:13.423Z,12.20
2022-11-19T15:46:47.227Z,12.20
2022-11-19T15:49:22.602Z,12.10
2022-11-19T15:52:03.761Z,12.10
2022-11-19T15:54:33.770Z,12.10
2022-11-19T15:57:04.376Z,12.00
2022-11-19T15:59:35.766Z,12.00
2022-11-19T16:02:07.011Z,12.00
2022-11-19T16:04:39.807Z,11.90
2022-11-19T16:07:10.610Z,11.90
2022-11-19T16:09:39.438Z,11.90
2022-11-19T16:12:25.556Z,11.90
2022-11-19T16:15:13.993Z,11.90
2022-11-19T16:17:45.044Z,11.90
2022-11-19T16:20:21.693Z,11.80
2022-11-19T16:22:56.017Z,11.80
2022-11-19T16:25:33.704Z,11.80
2022-11-19T16:28:07.700Z,11.80
2022-11-19T16:30:46.314Z,11.80
2022-11-19T16:33:18.075Z,11.80
2022-11-19T16:35:52.629Z,11.80
2022-11-19T16:38:26.096Z,11.80
2022-11-19T16:41:12.200Z,11.80
2022-11-19T16:43:44.161Z,11.80
2022-11-19T16:46:16.010Z,11.80
2022-11-19T16:49:03.416Z,11.80
2022-11-19T16:51:41.223Z,11.80
2022-11-19T16:54:11.082Z,11.80
2022-11-19T16:56:43.405Z,11.80
2022-11-19T16:59:19.882Z,11.80
2022-11-19T17:01:58.405Z,11.70
2022-11-19T17:04:29.729Z,11.70
2022-11-19T17:07:00.285Z,11.70
2022-11-19T17:09:37.048Z,11.70
2022-11-19T17:12:22.230Z,11.70
2022-11-19T17:14:53.688Z,11.70
2022-11-19T17:17:28.936Z,11.70
2022-11-19T17:19:57.869Z,11.60
2022-11-19T17:22:32.113Z,11.60
2022-11-19T17:25:03.775Z,11.60
2022-11-19T17:27:34.713Z,11.60
2022-11-19T17:30:05.729Z,11.60
2022-11-19T17:32:38.030Z,11.60
2022-11-19T17:35:09.108Z,11.60
2022-11-19T17:37:38.469Z,11.60
2022-11-19T17:40:07.538Z,11.50
2022-11-19T17:42:52.748Z,11.50
2022-11-19T17:45:20.680Z,11.50
2022-11-19T17:47:48.665Z,11.50
2022-11-19T17:50:16.739Z,11.50
2022-11-19T17:52:46.039Z,11.50
2022-11-19T17:55:19.227Z,11.50
2022-11-19T17:57:47.222Z,11.40
2022-11-19T18:00:16.145Z,11.40
2022-11-19T18:02:44.101Z,11.40
2022-11-19T18:05:16.586Z,11.40
2022-11-19T18:07:46.337Z,11.40
2022-11-19T18:10:14.430Z,11.40
2022-11-19T18:12:42.467Z,11.40
2022-11-19T18:15:14.514Z,11.30
2022-11-19T18:17:42.549Z,11.30
2022-11-19T18:20:11.447Z,11.30
2022-11-19T18:22:39.625Z,11.30
2022-11-19T18:25:15.441Z,11.30
2022-11-19T18:27:43.408Z,11.30
2022-11-19T18:30:12.614Z,11.30
2022-11-19T18:32:40.657Z,11.30
2022-11-19T18:35:15.548Z,11.30
2022-11-19T18:37:43.599Z,11.30
2022-11-19T18:40:14.794Z,11.30
2022-11-19T18:43:03.843Z,11.30
2022-11-19T18:45:31.356Z,11.30
2022-11-19T18:47:59.469Z,11.30
2022-11-19T18:50:30.137Z,11.30
2022-11-19T18:52:58.397Z,11.30
2022-11-19T18:55:27.935Z,11.30
2022-11-19T18:57:55.927Z,11.30
2022-11-19T19:00:24.199Z,11.30
2022-11-19T19:02:52.215Z,11.30
2022-11-19T19:05:20.285Z,11.30
2022-11-19T19:07:48.335Z,11.20
2022-11-19T19:10:16.794Z,11.20
2022-11-19T19:12:46.112Z,11.20
2022-11-19T19:15:15.394Z,11.20
2022-11-19T19:17:43.347Z,11.20
2022-11-19T19:20:12.373Z,11.20
2022-11-19T19:22:40.458Z,11.20
2022-11-19T19:25:09.217Z,11.10
2022-11-19T19:27:37.258Z,11.10
2022-11-19T19:30:09.427Z,11.10
2022-11-19T19:32:37.804Z,11.10
2022-11-19T19:35:06.596Z,11.10
2022-11-19T19:37:34.579Z,11.00
2022-11-19T19:40:02.621Z,11.00
2022-11-19T19:42:30.552Z,10.90
2022-11-19T19:44:59.297Z,10.90
2022-11-19T19:47:28.758Z,10.80
2022-11-19T19:49:56.706Z,10.80
2022-11-19T19:52:24.678Z,10.70
2022-11-19T19:54:52.642Z,10.70
2022-11-19T19:57:20.611Z,10.60
2022-11-19T19:59:48.676Z,10.60
2022-11-19T20:02:16.698Z,10.60
2022-11-19T20:04:46.229Z,10.50
2022-11-19T20:07:14.204Z,10.50
2022-11-19T20:09:42.242Z,10.50
2022-11-19T20:12:10.233Z,10.50
2022-11-19T20:14:38.183Z,10.50
2022-11-19T20:17:06.194Z,10.40
2022-11-19T20:19:34.153Z,10.40
2022-11-19T20:22:03.541Z,10.40
2022-11-19T20:24:31.496Z,10.40
2022-11-19T20:26:59.468Z,10.30
2022-11-19T20:29:28.300Z,10.30
2022-11-19T20:31:56.233Z,10.30
2022-11-19T20:34:24.197Z,10.30
2022-11-19T20:36:52.183Z,10.30
2022-11-19T20:39:21.852Z,10.30
2022-11-19T20:42:07.232Z,10.30
2022-11-19T20:44:35.231Z,10.30
2022-11-19T20:47:04.867Z,10.30
2022-11-19T20:49:34.386Z,10.30
2022-11-19T20:52:03.279Z,10.20
2022-11-19T20:54:33.452Z,10.30
2022-11-19T20:57:02.458Z,10.30
2022-11-19T20:59:31.392Z,10.30
2022-11-19T21:01:59.827Z,10.30
2022-11-19T21:04:31.349Z,10.30
2022-11-19T21:06:59.388Z,10.30
2022-11-19T21:09:27.689Z,10.30
2022-11-19T21:11:57.064Z,10.20
2022-11-19T21:14:25.082Z,10.20
2022-11-19T21:16:53.113Z,10.20
2022-11-19T21:19:21.358Z,10.20
2022-11-19T21:21:49.535Z,10.20
2022-11-19T21:24:17.468Z,10.20
2022-11-19T21:26:45.448Z,10.20
2022-11-19T21:29:15.024Z,10.20
2022-11-19T21:31:45.368Z,10.20
2022-11-19T21:34:14.979Z,10.20
2022-11-19T21:36:44.327Z,10.20
2022-11-19T21:39:13.911Z,10.20
2022-11-19T21:41:42.013Z,10.30
2022-11-19T21:44:10.151Z,10.20
2022-11-19T21:46:39.700Z,10.20
2022-11-19T21:49:07.680Z,10.30
2022-11-19T21:51:35.618Z,10.30
2022-11-19T21:54:03.649Z,10.30
2022-11-19T21:56:38.051Z,10.30
2022-11-19T21:59:07.448Z,10.30
2022-11-19T22:01:35.836Z,10.20
2022-11-19T22:04:06.708Z,10.20
2022-11-19T22:06:34.871Z,10.20
2022-11-19T22:09:02.873Z,10.20
2022-11-19T22:11:31.335Z,10.20
2022-11-19T22:14:01.464Z,10.20
2022-11-19T22:16:30.207Z,10.10
2022-11-19T22:18:58.329Z,10.10
2022-11-19T22:21:29.127Z,10.10
2022-11-19T22:23:57.439Z,10.00
2022-11-19T22:26:25.540Z,10.00
2022-11-19T22:28:53.488Z,10.00
2022-11-19T22:31:21.455Z,10.00
2022-11-19T22:33:51.670Z,9.90
2022-11-19T22:36:21.329Z,9.90
2022-11-19T22:38:51.176Z,9.90
2022-11-19T22:41:21.062Z,9.80
2022-11-19T22:43:49.454Z,9.80
2022-11-19T22:46:17.755Z,9.80
2022-11-19T22:48:45.865Z,9.80
2022-11-19T22:51:15.792Z,9.80
2022-11-19T22:53:44.062Z,9.80
2022-11-19T22:56:16.046Z,9.70
2022-11-19T22:58:44.236Z,9.70
2022-11-19T23:01:17.649Z,9.70
2022-11-19T23:03:46.147Z,9.70
2022-11-19T23:06:14.661Z,9.70
2022-11-19T23:08:43.194Z,9.60
2022-11-19T23:11:14.434Z,9.60
2022-11-19T23:13:43.916Z,9.60
2022-11-19T23:16:14.028Z,9.60
2022-11-19T23:18:43.994Z,9.60
2022-11-19T23:21:14.026Z,9.60
2022-11-19T23:23:41.968Z,9.50
2022-11-19T23:26:12.980Z,9.50
2022-11-19T23:28:42.988Z,9.50
2022-11-19T23:31:13.377Z,9.50
2022-11-19T23:33:41.883Z,9.50
2022-11-19T23:36:12.833Z,9.50
2022-11-19T23:38:41.384Z,9.50
2022-11-19T23:41:11.068Z,9.50
2022-11-19T23:43:39.500Z,9.50
2022-11-19T23:46:10.536Z,9.50
2022-11-19T23:48:39.282Z,9.50
2022-11-19T23:51:09.367Z,9.50
2022-11-19T23:53:37.854Z,9.50
2022-11-19T23:56:06.641Z,9.50
2022-11-19T23:58:35.500Z,9.50
